createdAt,value
2022-10-03T00:02:41.301Z,101622.00
2022-10-03T00:07:42.281Z,101632.00
2022-10-03T00:12:42.304Z,101640.00
2022-10-03T00:17:42.341Z,101642.00
2022-10-03T00:22:42.223Z,101644.00
2022-10-03T00:27:42.245Z,101652.00
2022-10-03T00:32:43.353Z,101657.00
2022-10-03T00:37:43.320Z,101659.00
2022-10-03T00:42:43.263Z,101657.00
2022-10-03T00:47:43.602Z,101659.00
2022-10-03T00:52:43.280Z,101663.00
2022-10-03T00:57:43.612Z,101669.00
2022-10-03T01:02:43.395Z,101673.00
2022-10-03T01:07:43.425Z,101675.00
2022-10-03T01:12:44.376Z,101679.00
2022-10-03T01:17:46.559Z,101683.00
2022-10-03T01:22:46.611Z,101683.00
2022-10-03T01:28:05.859Z,101683.00
2022-10-03T01:33:05.290Z,101683.00
2022-10-03T01:38:05.932Z,101683.00
2022-10-03T01:43:06.361Z,101681.00
2022-10-03T01:48:06.393Z,101687.00
2022-10-03T01:53:06.306Z,101689.00
2022-10-03T01:58:06.298Z,101693.00
2022-10-03T02:03:06.395Z,101693.00
2022-10-03T02:08:06.464Z,101699.00
2022-10-03T02:13:06.463Z,101703.00
2022-10-03T02:18:08.098Z,101710.00
2022-10-03T02:23:08.339Z,101716.00
2022-10-03T02:28:08.484Z,101716.00
2022-10-03T02:33:08.344Z,101718.00
2022-10-03T02:38:08.452Z,101716.00
2022-10-03T02:43:08.420Z,101716.00
2022-10-03T02:48:30.803Z,101716.00
2022-10-03T02:53:10.306Z,101720.00
2022-10-03T02:58:11.020Z,101724.00
2022-10-03T03:03:11.317Z,101728.00
2022-10-03T03:08:11.430Z,101726.00
2022-10-03T03:13:11.387Z,101730.00
2022-10-03T03:18:11.825Z,101736.00
2022-10-03T03:23:11.353Z,101738.00
2022-10-03T03:28:11.645Z,101746.00
2022-10-03T03:33:11.576Z,101748.00
2022-10-03T03:38:11.425Z,101746.00
2022-10-03T03:43:11.406Z,101746.00
2022-10-03T03:48:12.372Z,101742.00
2022-10-03T03:53:12.406Z,101746.00
2022-10-03T03:58:13.257Z,101750.00
2022-10-03T04:03:13.590Z,101748.00
2022-10-03T04:08:13.457Z,101750.00
2022-10-03T04:13:13.469Z,101752.00
2022-10-03T04:18:31.768Z,101755.00
2022-10-03T04:23:31.371Z,101759.00
2022-10-03T04:28:33.366Z,101763.00
2022-10-03T04:33:33.477Z,101761.00
2022-10-03T04:38:34.560Z,101763.00
2022-10-03T04:43:34.619Z,101765.00
2022-10-03T04:48:34.408Z,101765.00
2022-10-03T04:53:36.738Z,101765.00
2022-10-03T04:58:37.077Z,101769.00
2022-10-03T05:03:37.525Z,101765.00
2022-10-03T05:08:37.494Z,101763.00
2022-10-03T05:13:38.925Z,101763.00
2022-10-03T05:18:38.901Z,101763.00
2022-10-03T05:23:38.856Z,101767.00
2022-10-03T05:28:39.946Z,101773.00
2022-10-03T05:33:39.589Z,101777.00
2022-10-03T05:38:39.517Z,101783.00
2022-10-03T05:43:39.539Z,101791.00
2022-10-03T05:48:39.526Z,101795.00
2022-10-03T05:53:39.486Z,101795.00
2022-10-03T05:58:39.798Z,101802.00
2022-10-03T06:03:39.545Z,101812.00
2022-10-03T06:08:40.099Z,101814.00
2022-10-03T06:13:40.542Z,101818.00
2022-10-03T06:18:40.982Z,101822.00
2022-10-03T06:23:40.532Z,101820.00
2022-10-03T06:28:40.550Z,101822.00
2022-10-03T06:33:40.488Z,101820.00
2022-10-03T06:38:40.571Z,101833.00
2022-10-03T06:43:40.477Z,101835.00
2022-10-03T06:48:40.828Z,101837.00
2022-10-03T06:53:40.543Z,101839.00
2022-10-03T06:58:41.549Z,101843.00
2022-10-03T07:03:42.415Z,101843.00
2022-10-03T07:08:43.362Z,101850.00
2022-10-03T07:13:43.546Z,101850.00
2022-10-03T07:18:43.989Z,101852.00
2022-10-03T07:23:46.552Z,101858.00
2022-10-03T07:28:47.619Z,101860.00
2022-10-03T07:33:47.584Z,101862.00
2022-10-03T07:39:07.143Z,101870.00
2022-10-03T07:44:07.797Z,101876.00
2022-10-03T07:49:07.588Z,101878.00
2022-10-03T07:54:07.539Z,101884.00
2022-10-03T07:59:08.111Z,101889.00
2022-10-03T08:04:07.733Z,101891.00
2022-10-03T08:09:07.668Z,101893.00
2022-10-03T08:14:07.553Z,101893.00
2022-10-03T08:19:10.659Z,101895.00
2022-10-03T08:24:09.648Z,101901.00
2022-10-03T08:29:09.663Z,101909.00
2022-10-03T08:34:09.728Z,101909.00
2022-10-03T08:39:57.106Z,101915.00
2022-10-03T08:44:56.788Z,101911.00
2022-10-03T08:49:56.708Z,101911.00
2022-10-03T08:54:57.065Z,101911.00
2022-10-03T08:59:56.897Z,101911.00
2022-10-03T09:04:56.832Z,101909.00
2022-10-03T09:09:56.769Z,101903.00
2022-10-03T09:14:56.717Z,101897.00
2022-10-03T09:19:56.711Z,101893.00
2022-10-03T09:24:56.669Z,101889.00
2022-10-03T09:29:56.833Z,101886.00
2022-10-03T09:34:56.787Z,101882.00
2022-10-03T09:39:56.767Z,101882.00
2022-10-03T09:44:56.711Z,101876.00
2022-10-03T09:49:56.870Z,101870.00
2022-10-03T09:54:58.073Z,101868.00
2022-10-03T09:59:57.818Z,101864.00
2022-10-03T10:04:57.963Z,101860.00
2022-10-03T10:09:57.893Z,101852.00
2022-10-03T10:14:57.774Z,101854.00
2022-10-03T10:19:57.989Z,101858.00
2022-10-03T10:24:58.451Z,101856.00
2022-10-03T10:29:58.991Z,101848.00
2022-10-03T10:34:58.805Z,101845.00
2022-10-03T10:39:58.880Z,101846.00
2022-10-03T10:44:58.859Z,101845.00
2022-10-03T10:49:58.837Z,101843.00
2022-10-03T10:55:01.466Z,101839.00
2022-10-03T11:00:01.780Z,101835.00
2022-10-03T11:05:02.712Z,101833.00
2022-10-03T11:10:02.900Z,101833.00
2022-10-03T11:15:02.817Z,101831.00
2022-10-03T11:20:02.854Z,101831.00
2022-10-03T11:25:03.038Z,101822.00
2022-10-03T11:30:02.885Z,101818.00
2022-10-03T11:35:03.021Z,101814.00
2022-10-03T11:40:03.153Z,101812.00
2022-10-03T11:45:02.850Z,101806.00
2022-10-03T11:50:02.886Z,101802.00
2022-10-03T11:55:02.967Z,101799.00
2022-10-03T12:00:04.991Z,101800.00
2022-10-03T12:05:04.992Z,101800.00
2022-10-03T12:10:04.966Z,101797.00
2022-10-03T12:15:04.885Z,101797.00
2022-10-03T12:20:05.379Z,101795.00
2022-10-03T12:25:06.016Z,101791.00
2022-10-03T12:30:05.939Z,101787.00
2022-10-03T12:35:07.572Z,101779.00
2022-10-03T12:40:10.455Z,101779.00
2022-10-03T12:45:10.989Z,101775.00
2022-10-03T12:50:10.952Z,101773.00
2022-10-03T12:55:10.948Z,101769.00
2022-10-03T13:00:10.903Z,101767.00
2022-10-03T13:05:11.014Z,101763.00
2022-10-03T13:10:11.025Z,101763.00
2022-10-03T13:15:11.013Z,101761.00
2022-10-03T13:20:10.917Z,101757.00
2022-10-03T13:25:11.721Z,101753.00
2022-10-03T13:30:11.995Z,101750.00
2022-10-03T13:35:29.957Z,101750.00
2022-10-03T13:40:30.066Z,101744.00
2022-10-03T13:45:30.159Z,101744.00
2022-10-03T13:50:30.594Z,101744.00
2022-10-03T13:55:31.240Z,101742.00
2022-10-03T14:00:30.948Z,101736.00
2022-10-03T14:05:31.000Z,101730.00
2022-10-03T14:10:31.227Z,101724.00
2022-10-03T14:15:31.687Z,101724.00
2022-10-03T14:20:32.030Z,101722.00
2022-10-03T14:25:32.383Z,101722.00
2022-10-03T14:30:32.268Z,101720.00
2022-10-03T14:35:33.953Z,101718.00
2022-10-03T14:40:34.162Z,101722.00
2022-10-03T14:45:34.098Z,101724.00
2022-10-03T14:50:33.994Z,101716.00
2022-10-03T14:55:34.096Z,101706.00
2022-10-03T15:00:34.471Z,101706.00
2022-10-03T15:05:34.702Z,101699.00
2022-10-03T15:10:36.482Z,101697.00
2022-10-03T15:15:36.009Z,101693.00
2022-10-03T15:20:36.838Z,101693.00
2022-10-03T15:25:37.587Z,101689.00
2022-10-03T15:30:38.092Z,101681.00
2022-10-03T15:35:38.730Z,101679.00
2022-10-03T15:40:39.262Z,101671.00
2022-10-03T15:45:39.212Z,101667.00
2022-10-03T15:50:40.513Z,101659.00
2022-10-03T15:55:41.993Z,101659.00
2022-10-03T16:00:42.346Z,101659.00
2022-10-03T16:05:42.107Z,101654.00
2022-10-03T16:10:42.237Z,101652.00
2022-10-03T16:15:42.252Z,101655.00
2022-10-03T16:20:42.149Z,101654.00
2022-10-03T16:25:42.111Z,101650.00
2022-10-03T16:30:42.072Z,101642.00
2022-10-03T16:35:42.154Z,101638.00
2022-10-03T16:40:42.147Z,101642.00
2022-10-03T16:45:42.498Z,101644.00
2022-10-03T16:50:42.114Z,101640.00
2022-10-03T16:55:42.217Z,101638.00
2022-10-03T17:00:42.285Z,101630.00
2022-10-03T17:05:42.122Z,101624.00
2022-10-03T17:10:42.219Z,101628.00
2022-10-03T17:15:42.216Z,101626.00
2022-10-03T17:20:43.567Z,101632.00
2022-10-03T17:25:43.188Z,101630.00
2022-10-03T17:30:43.123Z,101626.00
2022-10-03T17:35:43.183Z,101624.00
2022-10-03T17:40:43.512Z,101620.00
2022-10-03T17:45:43.208Z,101620.00
2022-10-03T17:50:43.261Z,101620.00
2022-10-03T17:55:43.150Z,101622.00
2022-10-03T18:00:43.148Z,101620.00
2022-10-03T18:05:43.240Z,101622.00
2022-10-03T18:10:43.733Z,101622.00
2022-10-03T18:15:44.521Z,101624.00
2022-10-03T18:20:44.210Z,101618.00
2022-10-03T18:26:19.643Z,101616.00
2022-10-03T18:31:03.187Z,101612.00
2022-10-03T18:36:03.277Z,101607.00
2022-10-03T18:41:03.548Z,101599.00
2022-10-03T18:46:03.769Z,101601.00
2022-10-03T18:51:04.166Z,101601.00
2022-10-03T18:56:04.209Z,101597.00
2022-10-03T19:01:04.376Z,101597.00
2022-10-03T19:06:04.196Z,101597.00
2022-10-03T19:11:04.352Z,101597.00
2022-10-03T19:16:04.250Z,101597.00
2022-10-03T19:21:04.156Z,101597.00
2022-10-03T19:26:04.215Z,101603.00
2022-10-03T19:31:04.256Z,101612.00
2022-10-03T19:36:07.468Z,101616.00
2022-10-03T19:41:07.205Z,101612.00
2022-10-03T19:46:07.289Z,101605.00
2022-10-03T19:51:07.266Z,101601.00
2022-10-03T19:56:07.299Z,101607.00
2022-10-03T20:01:09.218Z,101605.00
2022-10-03T20:06:09.397Z,101603.00
2022-10-03T20:11:09.297Z,101605.00
2022-10-03T20:16:09.273Z,101611.00
2022-10-03T20:21:09.255Z,101614.00
2022-10-03T20:26:10.466Z,101620.00
2022-10-03T20:31:10.314Z,101614.00
2022-10-03T20:36:10.259Z,101614.00
2022-10-03T20:41:10.539Z,101612.00
2022-10-03T20:46:10.467Z,101609.00
2022-10-03T20:51:10.246Z,101609.00
2022-10-03T20:56:10.280Z,101603.00
2022-10-03T21:01:10.349Z,101597.00
2022-10-03T21:06:14.245Z,101593.00
2022-10-03T21:11:12.347Z,101583.00
2022-10-03T21:16:12.354Z,101585.00
2022-10-03T21:21:12.308Z,101583.00
2022-10-03T21:26:12.262Z,101581.00
2022-10-03T21:31:12.353Z,101581.00
2022-10-03T21:36:12.315Z,101579.00
2022-10-03T21:41:12.370Z,101575.00
2022-10-03T21:46:12.529Z,101563.00
2022-10-03T21:51:13.258Z,101563.00
2022-10-03T21:56:13.367Z,101575.00
2022-10-03T22:01:13.454Z,101577.00
2022-10-03T22:06:13.369Z,101579.00
2022-10-03T22:11:13.278Z,101575.00
2022-10-03T22:16:13.515Z,101577.00
2022-10-03T22:21:13.254Z,101581.00
2022-10-03T22:26:13.387Z,101579.00
2022-10-03T22:31:13.398Z,101575.00
2022-10-03T22:36:13.346Z,101565.00
2022-10-03T22:41:13.381Z,101565.00
2022-10-03T22:46:13.827Z,101563.00
2022-10-03T22:51:14.496Z,101559.00
2022-10-03T22:56:14.296Z,101555.00
2022-10-03T23:01:14.369Z,101551.00
2022-10-03T23:06:15.323Z,101543.00
2022-10-03T23:11:15.357Z,101535.00
2022-10-03T23:16:15.479Z,101525.00
2022-10-03T23:21:15.328Z,101518.00
2022-10-03T23:26:15.447Z,101510.00
2022-10-03T23:31:15.450Z,101512.00
2022-10-03T23:36:15.399Z,101508.00
2022-10-03T23:41:15.447Z,101508.00
2022-10-03T23:46:15.552Z,101506.00
2022-10-03T23:51:15.403Z,101498.00
2022-10-03T23:56:15.451Z,101496.00
